createdAt,value
2022-12-01T00:02:19.849Z,91.24
2022-12-01T00:04:48.073Z,90.79
2022-12-01T00:07:14.458Z,90.46
2022-12-01T00:09:59.460Z,90.97
2022-12-01T00:12:25.757Z,91.08
2022-12-01T00:14:54.988Z,91.30
2022-12-01T00:17:21.501Z,91.62
2022-12-01T00:19:48.108Z,91.28
2022-12-01T00:22:14.574Z,91.74
2022-12-01T00:24:40.856Z,91.69
2022-12-01T00:27:07.240Z,91.58
2022-12-01T00:29:33.541Z,91.78
2022-12-01T00:31:59.993Z,91.88
2022-12-01T00:34:28.009Z,91.75
2022-12-01T00:36:54.357Z,91.30
2022-12-01T00:39:20.759Z,90.73
2022-12-01T00:41:47.092Z,90.49
2022-12-01T00:44:13.398Z,90.96
2022-12-01T00:46:39.814Z,91.24
2022-12-01T00:49:06.263Z,91.22
2022-12-01T00:51:32.835Z,91.20
2022-12-01T00:53:59.168Z,91.75
2022-12-01T00:56:25.504Z,90.88
2022-12-01T00:58:51.846Z,90.68
2022-12-01T01:01:18.197Z,90.42
2022-12-01T01:03:44.532Z,90.53
2022-12-01T01:06:12.161Z,90.82
2022-12-01T01:08:39.757Z,91.16
2022-12-01T01:11:07.156Z,91.38
2022-12-01T01:13:34.787Z,91.16
2022-12-01T01:16:13.209Z,91.01
2022-12-01T01:18:39.515Z,91.32
2022-12-01T01:21:08.712Z,91.59
2022-12-01T01:23:35.115Z,91.74
2022-12-01T01:26:06.995Z,91.84
2022-12-01T01:28:33.588Z,90.98
2022-12-01T01:31:00.183Z,90.76
2022-12-01T01:33:26.480Z,90.61
2022-12-01T01:35:52.807Z,90.95
2022-12-01T01:38:19.153Z,90.85
2022-12-01T01:40:46.726Z,90.71
2022-12-01T01:43:18.210Z,90.97
2022-12-01T01:45:44.642Z,90.58
2022-12-01T01:48:13.524Z,90.63
2022-12-01T01:50:40.136Z,91.00
2022-12-01T01:53:10.618Z,90.30
2022-12-01T01:55:37.058Z,89.51
2022-12-01T01:58:07.764Z,89.41
2022-12-01T02:00:34.173Z,89.38
2022-12-01T02:03:00.636Z,89.22
2022-12-01T02:05:30.847Z,88.87
2022-12-01T02:07:59.400Z,88.70
2022-12-01T02:10:49.163Z,89.10
2022-12-01T02:13:38.697Z,89.69
2022-12-01T02:16:23.091Z,89.83
2022-12-01T02:18:59.992Z,89.97
2022-12-01T02:21:53.930Z,90.04
2022-12-01T02:24:30.065Z,90.64
2022-12-01T02:27:07.599Z,90.71
2022-12-01T02:30:04.302Z,91.26
2022-12-01T02:32:41.537Z,90.56
2022-12-01T02:35:17.173Z,90.55
2022-12-01T02:37:59.237Z,90.67
2022-12-01T02:40:31.943Z,90.72
2022-12-01T02:43:04.829Z,90.49
2022-12-01T02:45:49.017Z,90.55
2022-12-01T02:48:22.381Z,90.33
2022-12-01T02:50:50.831Z,89.83
2022-12-01T02:53:19.419Z,89.82
2022-12-01T02:55:53.572Z,88.55
2022-12-01T02:58:20.971Z,88.46
2022-12-01T03:01:07.706Z,88.81
2022-12-01T03:03:54.053Z,88.66
2022-12-01T03:06:36.574Z,88.15
2022-12-01T03:09:26.998Z,88.38
2022-12-01T03:12:23.365Z,88.02
2022-12-01T03:15:03.183Z,88.35
2022-12-01T03:17:38.490Z,87.89
2022-12-01T03:20:12.671Z,88.22
2022-12-01T03:22:51.073Z,88.01
2022-12-01T03:25:19.761Z,87.16
2022-12-01T03:28:19.363Z,87.30
2022-12-01T03:30:37.684Z,87.12
2022-12-01T03:33:09.686Z,87.06
2022-12-01T03:35:45.767Z,86.87
2022-12-01T03:38:21.697Z,86.30
2022-12-01T03:40:51.109Z,86.47
2022-12-01T03:43:25.809Z,86.33
2022-12-01T03:46:01.085Z,86.45
2022-12-01T03:48:28.124Z,86.47
2022-12-01T03:51:13.873Z,86.42
2022-12-01T03:54:00.303Z,86.97
2022-12-01T03:56:32.156Z,87.32
2022-12-01T03:59:02.747Z,87.13
2022-12-01T04:01:33.859Z,86.70
2022-12-01T04:04:07.105Z,87.33
2022-12-01T04:06:34.048Z,87.20
2022-12-01T04:09:00.354Z,87.60
2022-12-01T04:11:45.209Z,87.63
2022-12-01T04:14:11.544Z,87.33
2022-12-01T04:16:37.893Z,87.55
2022-12-01T04:19:04.194Z,87.58
2022-12-01T04:21:30.514Z,87.86
2022-12-01T04:24:02.725Z,87.67
2022-12-01T04:26:35.269Z,87.85
2022-12-01T04:29:04.141Z,88.05
2022-12-01T04:31:31.229Z,88.41
2022-12-01T04:33:58.869Z,88.73
2022-12-01T04:36:26.256Z,88.57
2022-12-01T04:38:52.723Z,88.76
2022-12-01T04:41:19.044Z,88.82
2022-12-01T04:43:45.435Z,89.31
2022-12-01T04:46:12.110Z,89.27
2022-12-01T04:48:41.050Z,88.65
2022-12-01T04:51:09.003Z,88.95
2022-12-01T04:53:36.353Z,88.67
2022-12-01T04:56:03.343Z,88.95
2022-12-01T04:58:31.131Z,89.15
2022-12-01T05:01:06.017Z,89.13
2022-12-01T05:03:35.756Z,89.15
2022-12-01T05:06:08.255Z,88.95
2022-12-01T05:08:34.597Z,88.97
2022-12-01T05:11:01.121Z,88.92
2022-12-01T05:13:28.346Z,88.95
2022-12-01T05:16:03.586Z,89.08
2022-12-01T05:18:30.028Z,89.48
2022-12-01T05:20:59.059Z,89.30
2022-12-01T05:23:26.970Z,89.60
2022-12-01T05:25:54.182Z,89.46
2022-12-01T05:28:21.440Z,89.95
2022-12-01T05:30:49.102Z,89.99
2022-12-01T05:33:17.563Z,89.92
2022-12-01T05:35:44.517Z,90.17
2022-12-01T05:38:11.039Z,90.42
2022-12-01T05:40:37.785Z,90.62
2022-12-01T05:43:04.409Z,90.89
2022-12-01T05:45:31.130Z,91.02
2022-12-01T05:47:58.877Z,90.94
2022-12-01T05:50:26.424Z,90.67
2022-12-01T05:52:52.825Z,91.07
2022-12-01T05:55:19.263Z,90.95
2022-12-01T05:57:45.795Z,90.89
2022-12-01T06:00:13.497Z,90.79
2022-12-01T06:02:41.099Z,90.88
2022-12-01T06:05:08.336Z,91.08
2022-12-01T06:07:35.670Z,91.17
2022-12-01T06:10:02.654Z,90.94
2022-12-01T06:12:28.996Z,91.17
2022-12-01T06:14:55.378Z,90.89
2022-12-01T06:17:21.723Z,90.38
2022-12-01T06:19:48.413Z,90.72
2022-12-01T06:22:14.987Z,90.14
2022-12-01T06:24:41.301Z,90.54
2022-12-01T06:27:07.631Z,90.85
2022-12-01T06:29:36.650Z,90.61
2022-12-01T06:32:07.110Z,90.42
2022-12-01T06:34:33.550Z,90.22
2022-12-01T06:36:59.884Z,90.03
2022-12-01T06:39:26.214Z,89.49
2022-12-01T06:41:52.897Z,89.78
2022-12-01T06:44:19.309Z,89.91
2022-12-01T06:46:45.663Z,89.96
2022-12-01T06:49:12.542Z,90.29
2022-12-01T06:51:39.439Z,90.01
2022-12-01T06:54:05.974Z,89.67
2022-12-01T06:56:32.308Z,89.60
2022-12-01T06:58:58.939Z,89.63
2022-12-01T07:01:26.016Z,89.35
2022-12-01T07:03:52.377Z,89.20
2022-12-01T07:06:18.689Z,88.30
2022-12-01T07:08:45.085Z,88.65
2022-12-01T07:11:14.034Z,88.31
2022-12-01T07:13:41.880Z,89.03
2022-12-01T07:16:09.456Z,89.01
2022-12-01T07:18:37.001Z,89.48
2022-12-01T07:21:06.032Z,89.62
2022-12-01T07:23:32.865Z,89.75
2022-12-01T07:26:13.550Z,89.60
2022-12-01T07:28:40.260Z,89.47
2022-12-01T07:31:18.932Z,89.83
2022-12-01T07:33:45.538Z,90.00
2022-12-01T07:36:12.861Z,89.37
2022-12-01T07:38:39.825Z,90.04
2022-12-01T07:41:14.969Z,90.06
2022-12-01T07:43:42.158Z,90.28
2022-12-01T07:46:09.919Z,89.84
2022-12-01T07:48:37.676Z,89.24
2022-12-01T07:51:06.042Z,89.20
2022-12-01T07:53:32.513Z,89.52
2022-12-01T07:56:02.086Z,89.81
2022-12-01T07:58:32.770Z,89.56
2022-12-01T08:01:05.006Z,89.06
2022-12-01T08:03:31.425Z,89.04
2022-12-01T08:05:59.026Z,87.38
2022-12-01T08:08:25.783Z,86.93
2022-12-01T08:10:53.402Z,87.04
2022-12-01T08:13:20.746Z,87.05
2022-12-01T08:15:47.211Z,87.39
2022-12-01T08:18:13.581Z,87.03
2022-12-01T08:20:39.858Z,87.23
2022-12-01T08:23:08.022Z,87.16
2022-12-01T08:25:34.413Z,86.98
2022-12-01T08:28:01.581Z,86.34
2022-12-01T08:30:28.586Z,84.62
2022-12-01T08:32:56.681Z,85.51
2022-12-01T08:35:24.054Z,85.25
2022-12-01T08:37:54.361Z,84.44
2022-12-01T08:40:21.766Z,85.09
2022-12-01T08:42:48.096Z,84.98
2022-12-01T08:45:14.647Z,84.62
2022-12-01T08:47:41.009Z,85.00
2022-12-01T08:50:07.867Z,85.30
2022-12-01T08:52:35.129Z,84.79
2022-12-01T08:55:01.969Z,84.70
2022-12-01T08:57:31.464Z,83.76
2022-12-01T08:59:57.826Z,83.50
2022-12-01T09:02:24.740Z,83.38
2022-12-01T09:04:51.382Z,82.13
2022-12-01T09:07:24.591Z,82.78
2022-12-01T09:09:53.010Z,81.74
2022-12-01T09:12:19.690Z,81.02
2022-12-01T09:14:48.259Z,82.13
2022-12-01T09:17:16.161Z,81.68
2022-12-01T09:19:43.843Z,81.50
2022-12-01T09:22:11.751Z,82.15
2022-12-01T09:24:38.418Z,81.51
2022-12-01T09:27:05.323Z,82.27
2022-12-01T09:29:32.300Z,81.61
2022-12-01T09:32:00.288Z,80.96
2022-12-01T09:34:28.844Z,80.96
2022-12-01T09:36:57.535Z,80.19
2022-12-01T09:39:24.096Z,79.52
2022-12-01T09:41:55.864Z,79.37
2022-12-01T09:44:35.906Z,78.95
2022-12-01T09:47:19.119Z,78.42
2022-12-01T09:50:03.439Z,78.28
2022-12-01T09:52:39.793Z,78.40
2022-12-01T09:55:12.888Z,76.86
2022-12-01T09:57:40.769Z,76.63
2022-12-01T10:00:15.164Z,77.30
2022-12-01T10:02:52.232Z,77.38
2022-12-01T10:05:20.934Z,76.36
2022-12-01T10:07:56.328Z,77.90
2022-12-01T10:10:34.464Z,77.63
2022-12-01T10:13:00.768Z,77.91
2022-12-01T10:15:46.517Z,76.15
2022-12-01T10:18:20.824Z,76.08
2022-12-01T10:21:11.845Z,75.36
2022-12-01T10:23:56.982Z,75.05
2022-12-01T10:26:50.055Z,73.54
2022-12-01T10:29:47.217Z,74.74
2022-12-01T10:32:17.937Z,74.36
2022-12-01T10:34:46.603Z,74.23
2022-12-01T10:37:19.072Z,74.39
2022-12-01T10:39:48.686Z,74.14
2022-12-01T10:42:39.653Z,74.79
2022-12-01T10:45:14.164Z,73.05
2022-12-01T10:48:15.634Z,73.06
2022-12-01T10:50:47.533Z,73.98
2022-12-01T10:53:22.967Z,74.23
2022-12-01T10:56:03.585Z,74.68
2022-12-01T10:58:33.604Z,74.06
2022-12-01T11:01:05.777Z,74.93
2022-12-01T11:03:34.931Z,74.03
2022-12-01T11:06:05.662Z,71.59
2022-12-01T11:08:38.848Z,71.94
2022-12-01T11:11:05.213Z,72.11
2022-12-01T11:13:35.539Z,71.79
2022-12-01T11:16:05.854Z,71.45
2022-12-01T11:18:37.992Z,71.73
2022-12-01T11:21:10.395Z,72.02
2022-12-01T11:23:50.694Z,72.29
2022-12-01T11:26:25.514Z,72.42
2022-12-01T11:28:53.326Z,72.82
2022-12-01T11:31:21.652Z,72.15
2022-12-01T11:33:53.556Z,71.24
2022-12-01T11:36:42.629Z,70.18
2022-12-01T11:39:23.487Z,69.83
2022-12-01T11:41:55.880Z,70.08
2022-12-01T11:44:49.732Z,71.01
2022-12-01T11:47:24.813Z,71.14
2022-12-01T11:50:13.098Z,70.66
2022-12-01T11:52:49.111Z,70.50
2022-12-01T11:55:15.484Z,70.91
2022-12-01T11:57:48.033Z,70.99
2022-12-01T12:00:23.662Z,71.56
2022-12-01T12:03:18.723Z,71.35
2022-12-01T12:05:51.450Z,71.63
2022-12-01T12:08:26.446Z,71.31
2022-12-01T12:11:12.025Z,70.76
2022-12-01T12:14:00.538Z,71.23
2022-12-01T12:19:25.418Z,71.46
2022-12-01T12:22:00.430Z,71.95
2022-12-01T12:24:37.266Z,71.78
2022-12-01T12:27:18.296Z,72.05
2022-12-01T12:30:01.887Z,71.24
2022-12-01T12:33:17.738Z,71.38
2022-12-01T12:36:07.406Z,71.37
2022-12-01T12:39:16.437Z,71.94
2022-12-01T12:41:50.331Z,72.44
2022-12-01T12:44:49.546Z,73.02
2022-12-01T12:47:49.585Z,74.01
2022-12-01T12:50:41.608Z,73.84
2022-12-01T12:53:17.798Z,73.51
2022-12-01T12:55:48.975Z,73.12
2022-12-01T12:58:24.137Z,73.51
2022-12-01T13:00:57.905Z,73.62
2022-12-01T13:04:15.593Z,72.99
2022-12-01T13:06:48.750Z,72.95
2022-12-01T13:09:26.142Z,73.36
2022-12-01T13:12:04.603Z,73.21
2022-12-01T13:14:38.439Z,72.49
2022-12-01T13:17:30.661Z,72.62
2022-12-01T13:19:57.068Z,72.43
2022-12-01T13:22:30.763Z,72.34
2022-12-01T13:24:57.148Z,72.72
2022-12-01T13:27:27.141Z,72.53
2022-12-01T13:29:55.879Z,72.22
2022-12-01T13:32:34.900Z,71.92
2022-12-01T13:35:06.239Z,72.08
2022-12-01T13:37:38.177Z,72.53
2022-12-01T13:40:19.957Z,72.62
2022-12-01T13:43:10.360Z,72.21
2022-12-01T13:45:39.841Z,72.24
2022-12-01T13:48:25.010Z,71.28
2022-12-01T13:51:02.705Z,71.09
2022-12-01T13:53:30.358Z,71.23
2022-12-01T13:56:03.775Z,71.22
2022-12-01T13:58:32.996Z,70.73
2022-12-01T14:01:25.796Z,70.93
2022-12-01T14:03:57.953Z,69.08
2022-12-01T14:06:38.417Z,70.29
2022-12-01T14:09:16.581Z,69.66
2022-12-01T14:11:56.841Z,69.61
2022-12-01T14:14:26.401Z,69.74
2022-12-01T14:16:55.347Z,69.84
2022-12-01T14:19:43.308Z,70.66
2022-12-01T14:22:40.436Z,70.61
2022-12-01T14:25:22.445Z,71.05
2022-12-01T14:27:52.715Z,70.83
2022-12-01T14:30:46.769Z,70.00
2022-12-01T14:33:51.192Z,70.63
2022-12-01T14:36:17.526Z,71.22
2022-12-01T14:38:46.069Z,70.72
2022-12-01T14:41:27.243Z,71.85
2022-12-01T14:44:03.644Z,72.65
2022-12-01T14:46:39.500Z,73.00
2022-12-01T14:49:11.221Z,72.82
2022-12-01T14:51:41.896Z,73.39
2022-12-01T14:54:17.867Z,73.68
2022-12-01T14:56:47.908Z,73.47
2022-12-01T14:59:21.792Z,73.99
2022-12-01T15:01:51.522Z,74.99
2022-12-01T15:04:18.163Z,75.05
2022-12-01T15:06:44.996Z,75.42
2022-12-01T15:09:34.460Z,76.15
2022-12-01T15:12:07.086Z,75.40
2022-12-01T15:14:36.460Z,75.54
2022-12-01T15:17:05.367Z,75.65
2022-12-01T15:19:40.145Z,76.36
2022-12-01T15:22:13.742Z,77.29
2022-12-01T15:24:40.692Z,77.21
2022-12-01T15:27:25.147Z,76.85
2022-12-01T15:29:52.309Z,76.90
2022-12-01T15:32:21.495Z,76.94
2022-12-01T15:34:52.136Z,77.09
2022-12-01T15:37:24.492Z,77.35
2022-12-01T15:43:02.846Z,77.63
2022-12-01T15:45:29.250Z,78.07
2022-12-01T15:47:55.792Z,78.27
2022-12-01T15:50:42.687Z,77.97
2022-12-01T15:53:25.753Z,77.71
2022-12-01T15:55:58.611Z,78.17
2022-12-01T15:58:30.144Z,78.00
2022-12-01T16:01:02.258Z,78.23
2022-12-01T16:03:29.028Z,78.60
2022-12-01T16:06:00.063Z,79.00
2022-12-01T16:08:28.080Z,79.22
2022-12-01T16:11:13.984Z,79.29
2022-12-01T16:13:59.643Z,79.07
2022-12-01T16:16:46.304Z,79.11
2022-12-01T16:19:12.619Z,78.86
2022-12-01T16:21:51.860Z,78.65
2022-12-01T16:24:22.496Z,79.21
2022-12-01T16:26:55.892Z,79.06
2022-12-01T16:29:24.577Z,79.32
2022-12-01T16:32:18.813Z,78.89
2022-12-01T16:34:46.237Z,79.59
2022-12-01T16:37:13.696Z,79.46
2022-12-01T16:39:40.041Z,79.49
2022-12-01T16:42:06.629Z,80.22
2022-12-01T16:44:33.034Z,80.51
2022-12-01T16:46:59.367Z,80.31
2022-12-01T16:49:25.726Z,80.72
2022-12-01T16:51:56.801Z,80.72
2022-12-01T16:54:23.736Z,80.72
2022-12-01T16:56:50.878Z,80.38
2022-12-01T16:59:17.171Z,80.57
2022-12-01T17:01:43.555Z,80.32
2022-12-01T17:04:09.897Z,80.81
2022-12-01T17:06:38.209Z,81.08
2022-12-01T17:09:04.981Z,80.46
2022-12-01T17:11:32.077Z,80.42
2022-12-01T17:13:58.406Z,80.18
2022-12-01T17:16:24.784Z,80.19
2022-12-01T17:18:51.181Z,79.93
2022-12-01T17:21:17.558Z,79.81
2022-12-01T17:23:43.934Z,79.88
2022-12-01T17:26:14.923Z,79.49
2022-12-01T17:28:41.322Z,78.88
2022-12-01T17:31:08.999Z,78.67
2022-12-01T17:33:35.925Z,78.92
2022-12-01T17:36:05.083Z,78.67
2022-12-01T17:38:35.930Z,78.56
2022-12-01T17:41:03.382Z,78.87
2022-12-01T17:43:29.841Z,78.71
2022-12-01T17:45:56.359Z,79.13
2022-12-01T17:48:22.705Z,79.38
2022-12-01T17:50:49.021Z,79.38
2022-12-01T17:53:15.329Z,79.69
2022-12-01T17:55:41.727Z,79.98
2022-12-01T17:58:08.069Z,80.18
2022-12-01T18:00:34.382Z,80.57
2022-12-01T18:03:00.765Z,80.30
2022-12-01T18:05:29.186Z,80.29
2022-12-01T18:07:55.710Z,80.03
2022-12-01T18:10:22.027Z,80.30
2022-12-01T18:12:48.312Z,80.62
2022-12-01T18:15:14.693Z,80.63
2022-12-01T18:17:40.977Z,81.20
2022-12-01T18:20:08.233Z,81.17
2022-12-01T18:22:34.546Z,81.03
2022-12-01T18:25:00.884Z,81.68
2022-12-01T18:27:27.222Z,81.75
2022-12-01T18:29:53.576Z,82.31
2022-12-01T18:32:19.957Z,82.73
2022-12-01T18:34:46.610Z,83.09
2022-12-01T18:37:13.213Z,83.04
2022-12-01T18:39:39.550Z,83.59
2022-12-01T18:42:06.062Z,83.87
2022-12-01T18:44:32.453Z,83.35
2022-12-01T18:46:59.052Z,83.38
2022-12-01T18:49:25.575Z,83.89
2022-12-01T18:51:51.993Z,84.29
2022-12-01T18:54:18.389Z,84.60
2022-12-01T18:56:44.947Z,85.26
2022-12-01T18:59:12.828Z,86.02
2022-12-01T19:01:43.885Z,86.54
2022-12-01T19:04:10.881Z,86.52
2022-12-01T19:06:39.478Z,87.24
2022-12-01T19:09:08.930Z,87.38
2022-12-01T19:11:35.804Z,87.60
2022-12-01T19:14:03.406Z,88.05
2022-12-01T19:16:30.991Z,88.22
2022-12-01T19:19:00.084Z,88.43
2022-12-01T19:21:26.515Z,89.13
2022-12-01T19:23:53.311Z,89.37
2022-12-01T19:26:21.757Z,89.74
2022-12-01T19:28:48.959Z,90.42
2022-12-01T19:31:18.472Z,90.51
2022-12-01T19:33:45.240Z,90.58
2022-12-01T19:36:14.258Z,90.77
2022-12-01T19:38:41.503Z,90.69
2022-12-01T19:41:09.459Z,90.79
2022-12-01T19:43:36.988Z,90.94
2022-12-01T19:46:08.592Z,90.94
2022-12-01T19:48:35.521Z,91.44
2022-12-01T19:51:01.980Z,91.90
2022-12-01T19:53:33.271Z,92.05
2022-12-01T19:56:04.875Z,91.88
2022-12-01T19:58:34.529Z,92.20
2022-12-01T20:01:05.285Z,92.12
2022-12-01T20:03:31.674Z,92.25
2022-12-01T20:06:06.365Z,92.49
2022-12-01T20:08:35.942Z,92.56
2022-12-01T20:11:04.097Z,92.68
2022-12-01T20:13:37.953Z,92.81
2022-12-01T20:16:08.016Z,92.95
2022-12-01T20:18:34.759Z,93.21
2022-12-01T20:21:10.188Z,93.00
2022-12-01T20:23:37.097Z,93.06
2022-12-01T20:26:07.440Z,92.92
2022-12-01T20:28:35.229Z,92.38
2022-12-01T20:31:02.456Z,92.34
2022-12-01T20:33:29.112Z,92.43
2022-12-01T20:35:55.557Z,92.01
2022-12-01T20:38:27.226Z,92.11
2022-12-01T20:40:54.149Z,92.07
2022-12-01T20:43:22.004Z,92.06
2022-12-01T20:45:48.466Z,92.22
2022-12-01T20:48:15.226Z,92.18
2022-12-01T20:50:41.733Z,92.07
2022-12-01T20:53:08.167Z,91.63
2022-12-01T20:55:36.658Z,91.41
2022-12-01T20:58:04.814Z,91.53
2022-12-01T21:00:31.850Z,91.41
2022-12-01T21:02:58.242Z,90.98
2022-12-01T21:05:25.461Z,90.92
2022-12-01T21:07:51.919Z,91.08
2022-12-01T21:10:20.278Z,90.91
2022-12-01T21:13:09.585Z,90.65
2022-12-01T21:15:46.348Z,90.81
2022-12-01T21:18:23.074Z,90.76
2022-12-01T21:20:55.117Z,90.35
2022-12-01T21:23:21.443Z,90.17
2022-12-01T21:25:48.964Z,89.02
2022-12-01T21:28:19.826Z,88.81
2022-12-01T21:30:47.841Z,88.91
2022-12-01T21:33:32.072Z,88.96
2022-12-01T21:36:00.732Z,88.73
2022-12-01T21:38:27.763Z,88.60
2022-12-01T21:40:54.463Z,88.85
2022-12-01T21:43:23.240Z,88.61
2022-12-01T21:46:00.255Z,88.59
2022-12-01T21:48:34.958Z,88.56
2022-12-01T21:51:06.954Z,88.48
2022-12-01T21:53:38.351Z,88.63
2022-12-01T21:56:04.878Z,88.37
2022-12-01T21:58:36.075Z,88.58
2022-12-01T22:01:14.935Z,88.83
2022-12-01T22:03:45.160Z,88.59
2022-12-01T22:06:32.203Z,88.61
2022-12-01T22:09:02.234Z,88.44
2022-12-01T22:11:30.418Z,88.42
2022-12-01T22:14:05.003Z,88.77
2022-12-01T22:16:33.749Z,88.73
2022-12-01T22:19:08.359Z,88.76
2022-12-01T22:21:39.233Z,88.96
2022-12-01T22:24:19.930Z,88.88
2022-12-01T22:26:49.330Z,88.86
2022-12-01T22:29:35.787Z,88.87
2022-12-01T22:32:26.392Z,89.01
2022-12-01T22:34:57.544Z,89.16
2022-12-01T22:37:47.002Z,89.31
2022-12-01T22:40:36.465Z,88.44
2022-12-01T22:43:18.120Z,88.48
2022-12-01T22:45:59.452Z,88.56
2022-12-01T22:48:25.799Z,87.94
2022-12-01T22:50:52.269Z,88.16
2022-12-01T22:53:24.662Z,88.06
2022-12-01T22:55:55.122Z,88.33
2022-12-01T22:58:27.548Z,87.78
2022-12-01T23:00:56.899Z,87.99
2022-12-01T23:03:24.368Z,87.18
2022-12-01T23:05:56.007Z,87.23
2022-12-01T23:08:23.656Z,87.51
2022-12-01T23:10:50.772Z,87.88
2022-12-01T23:13:22.863Z,88.05
2022-12-01T23:15:51.343Z,88.55
2022-12-01T23:18:23.778Z,88.79
2022-12-01T23:20:54.214Z,89.29
2022-12-01T23:23:31.562Z,89.77
2022-12-01T23:25:58.780Z,89.91
2022-12-01T23:28:25.117Z,90.17
2022-12-01T23:30:55.597Z,90.45
2022-12-01T23:33:24.637Z,90.50
2022-12-01T23:35:55.919Z,90.66
2022-12-01T23:38:26.090Z,90.92
2022-12-01T23:40:55.841Z,90.99
2022-12-01T23:43:28.573Z,91.27
2022-12-01T23:46:17.846Z,91.37
2022-12-01T23:48:52.333Z,91.33
2022-12-01T23:51:24.403Z,91.43
2022-12-01T23:53:53.294Z,91.33
2022-12-01T23:56:21.796Z,91.26
2022-12-01T23:58:48.877Z,90.32
